KTHV/THV METAR and TAF weather

Enter ICAO airport designator
Station Type Date Time Source
KTHV METAR 2019/12/06 23:53 UTC NOAA

KTHV 062353Z AUTO 28006KT 10SM OVC045 09/02 A3006 RMK AO2 SLP183 60000 T00890017 10106 20083 53029


Station Type Date Time Source
KTHV Decoded METAR 2019/12/06 23:53 UTC NOAA

YORK AIRPORT, PA, United States (KTHV) 39-55N 076-53W 144M
Dec 06, 2019 - 06:53 PM EST / 2019.12.06 2353 UTC
Wind: from the W (280 degrees) at 7 MPH (6 KT):0
Visibility: 10 mile(s):0
Sky conditions: overcast
Temperature: 48.0 F (8.9 C)
Dew Point: 35.1 F (1.7 C)
Relative Humidity: 60%
Pressure (altimeter): 30.06 in. Hg (1017 hPa)
Pressure tendency: 0.09 inches (2.9 hPa) higher than three hours ago
ob: KTHV 062353Z AUTO 28006KT 10SM OVC045 09/02 A3006 RMK AO2 SLP183 60000 T00890017 10106 20083 53029
cycle: 0

Station Type Date Time Source
KTHV TAF UTC NOAA

Error!

Example: see airport list